SKCG/CTG METAR and TAF weather

Enter ICAO airport designator
Station Type Date Time Source
SKCG METAR 2021/01/16 03:00 UTC NOAA

SKCG 160300Z 03005KT 360V070 CAVOK 26/24 Q1009 RMK A2981


Station Type Date Time Source
SKCG Decoded METAR 2021/01/16 03:00 UTC NOAA

Cartagena / Rafael Nunez, Colombia (SKCG) 10-27N 075-31W 12M
Jan 15, 2021 - 10:00 PM EST / 2021.01.16 0300 UTC
Wind: from the NNE (030 degrees) at 6 MPH (5 KT) (direction variable):0
Visibility: greater than 7 mile(s):0
Temperature: 78 F (26 C)
Dew Point: 75 F (24 C)
Relative Humidity: 88%
Pressure (altimeter): 29.80 in. Hg (1009 hPa)
ob: SKCG 160300Z 03005KT 360V070 CAVOK 26/24 Q1009 RMK A2981
cycle: 3

Station Type Date Time Source
SKCG TAF 2021/01/16 00:00 UTC NOAA

TAF SKCG 152230Z 1600/1624 VRB04KT 9999 FEW018
BECMG 1615/1617 35012KT TX31/1619Z TN23/1610Z

Example: see airport list